createdAt,value
2023-05-12T00:01:06.713Z,15.81
2023-05-12T00:04:11.181Z,15.82
2023-05-12T00:07:15.476Z,15.79
2023-05-12T00:10:19.576Z,15.79
2023-05-12T00:13:24.138Z,15.79
2023-05-12T00:16:28.584Z,15.83
2023-05-12T00:19:36.472Z,15.73
2023-05-12T00:22:41.606Z,15.66
2023-05-12T00:25:45.694Z,15.62
2023-05-12T00:28:49.834Z,15.68
2023-05-12T00:31:55.787Z,15.64
2023-05-12T00:35:00.199Z,15.66
2023-05-12T00:38:04.617Z,15.70
2023-05-12T00:41:09.151Z,15.65
2023-05-12T00:44:13.319Z,15.67
2023-05-12T00:47:17.979Z,15.66
2023-05-12T00:50:22.264Z,15.71
2023-05-12T00:53:32.555Z,15.69
2023-05-12T00:56:42.175Z,15.69
2023-05-12T00:59:46.107Z,15.65
2023-05-12T01:02:50.370Z,15.69
2023-05-12T01:06:16.509Z,15.66
2023-05-12T01:09:20.692Z,15.65
2023-05-12T01:12:26.134Z,15.59
2023-05-12T01:15:32.000Z,15.61
2023-05-12T01:18:38.813Z,15.67
2023-05-12T01:21:43.116Z,15.60
2023-05-12T01:24:54.851Z,15.52
2023-05-12T01:27:59.788Z,15.59
2023-05-12T01:31:06.371Z,15.57
2023-05-12T01:34:15.969Z,15.58
2023-05-12T01:37:20.562Z,15.55
2023-05-12T01:40:24.236Z,15.50
2023-05-12T01:43:28.028Z,15.41
2023-05-12T01:46:32.629Z,15.37
2023-05-12T01:49:40.024Z,15.30
2023-05-12T01:52:45.658Z,15.28
2023-05-12T01:55:49.774Z,15.27
2023-05-12T01:58:53.739Z,15.25
2023-05-12T02:01:58.046Z,15.21
2023-05-12T02:05:02.258Z,15.23
2023-05-12T02:08:07.246Z,15.24
2023-05-12T02:11:11.561Z,15.19
2023-05-12T02:14:15.535Z,15.19
2023-05-12T02:17:19.470Z,15.24
2023-05-12T02:20:24.162Z,15.25
2023-05-12T02:23:28.249Z,15.23
2023-05-12T02:26:32.390Z,15.21
2023-05-12T02:29:37.717Z,15.22
2023-05-12T02:32:41.823Z,15.21
2023-05-12T02:35:46.175Z,15.10
2023-05-12T02:38:50.143Z,15.06
2023-05-12T02:41:54.110Z,15.04
2023-05-12T02:44:58.334Z,15.06
2023-05-12T02:48:02.649Z,15.04
2023-05-12T02:51:07.019Z,14.96
2023-05-12T02:54:11.470Z,14.91
2023-05-12T02:57:15.410Z,14.89
2023-05-12T03:00:20.210Z,14.91
2023-05-12T03:03:24.255Z,14.91
2023-05-12T03:06:29.755Z,14.88
2023-05-12T03:09:33.746Z,14.87
2023-05-12T03:12:37.901Z,14.85
2023-05-12T03:15:42.046Z,14.87
2023-05-12T03:18:46.319Z,14.86
2023-05-12T03:21:50.587Z,14.84
2023-05-12T03:24:54.965Z,14.79
2023-05-12T03:27:59.110Z,14.79
2023-05-12T03:31:03.374Z,14.77
2023-05-12T03:34:07.449Z,14.79
2023-05-12T03:37:11.699Z,14.81
2023-05-12T03:40:18.605Z,14.85
2023-05-12T03:43:23.511Z,14.87
2023-05-12T03:46:27.621Z,14.88
2023-05-12T03:49:31.603Z,14.84
2023-05-12T03:52:38.413Z,14.92
2023-05-12T03:55:42.692Z,14.93
2023-05-12T03:58:47.426Z,14.85
2023-05-12T04:01:53.423Z,14.80
2023-05-12T04:04:58.063Z,14.85
2023-05-12T04:08:02.067Z,14.82
2023-05-12T04:11:05.944Z,14.71
2023-05-12T04:14:10.471Z,14.71
2023-05-12T04:17:14.534Z,14.70
2023-05-12T04:20:18.884Z,14.74
2023-05-12T04:23:23.479Z,14.74
2023-05-12T04:26:27.711Z,14.72
2023-05-12T04:29:32.125Z,14.74
2023-05-12T04:32:36.435Z,14.80
2023-05-12T04:35:40.421Z,14.80
2023-05-12T04:38:44.492Z,14.83
2023-05-12T04:41:48.655Z,14.80
2023-05-12T04:44:52.896Z,14.84
2023-05-12T04:47:57.152Z,14.78
2023-05-12T04:51:01.338Z,14.79
2023-05-12T04:54:05.710Z,14.80
2023-05-12T04:57:10.082Z,14.88
2023-05-12T05:00:14.998Z,14.87
2023-05-12T05:03:18.807Z,14.84
2023-05-12T05:06:22.715Z,14.86
2023-05-12T05:09:26.563Z,14.83
2023-05-12T05:12:30.806Z,14.96
2023-05-12T05:15:34.794Z,14.97
2023-05-12T05:18:41.735Z,15.03
2023-05-12T05:21:45.662Z,15.04
2023-05-12T05:24:49.854Z,15.05
2023-05-12T05:27:55.626Z,15.05
2023-05-12T05:30:59.428Z,15.18
2023-05-12T05:34:03.439Z,15.25
2023-05-12T05:37:07.657Z,15.28
2023-05-12T05:40:12.037Z,15.44
2023-05-12T05:43:16.577Z,15.49
2023-05-12T05:46:20.755Z,15.57
2023-05-12T05:49:24.840Z,15.63
2023-05-12T05:52:28.826Z,15.60
2023-05-12T05:55:33.275Z,15.65
2023-05-12T05:58:38.242Z,15.72
2023-05-12T06:01:42.371Z,15.84
2023-05-12T06:04:47.030Z,16.00
2023-05-12T06:07:50.881Z,15.99
2023-05-12T06:10:55.085Z,16.08
2023-05-12T06:13:59.608Z,16.19
2023-05-12T06:17:03.861Z,16.07
2023-05-12T06:20:08.411Z,16.25
2023-05-12T06:23:12.218Z,16.39
2023-05-12T06:26:16.426Z,16.58
2023-05-12T06:29:21.302Z,16.67
2023-05-12T06:32:26.412Z,16.94
2023-05-12T06:35:30.239Z,17.06
2023-05-12T06:38:34.424Z,17.00
2023-05-12T06:41:38.407Z,17.09
2023-05-12T06:44:42.839Z,17.18
2023-05-12T06:47:46.884Z,17.29
2023-05-12T06:50:51.103Z,17.36
2023-05-12T06:53:55.331Z,17.63
2023-05-12T06:56:59.473Z,17.74
2023-05-12T07:00:05.011Z,17.80
2023-05-12T07:03:10.499Z,18.01
2023-05-12T07:06:14.601Z,18.11
2023-05-12T07:09:18.866Z,18.35
2023-05-12T07:12:23.175Z,18.31
2023-05-12T07:15:27.526Z,18.51
2023-05-12T07:18:32.140Z,18.48
2023-05-12T07:21:37.190Z,18.57
2023-05-12T07:24:41.636Z,18.74
2023-05-12T07:27:45.344Z,18.88
2023-05-12T07:30:50.022Z,19.08
2023-05-12T07:33:54.317Z,19.18
2023-05-12T07:36:59.559Z,19.29
2023-05-12T07:40:04.781Z,19.63
2023-05-12T07:43:10.424Z,20.11
2023-05-12T07:46:15.585Z,20.36
2023-05-12T07:49:19.902Z,20.43
2023-05-12T07:52:24.433Z,21.01
2023-05-12T07:55:28.745Z,22.03
2023-05-12T07:58:32.758Z,23.56
2023-05-12T08:01:36.943Z,24.90
2023-05-12T08:04:43.156Z,25.87
2023-05-12T08:07:48.635Z,25.23
2023-05-12T08:10:52.906Z,25.89
2023-05-12T08:13:57.091Z,26.93
2023-05-12T08:17:01.304Z,26.11
2023-05-12T08:20:06.632Z,25.44
2023-05-12T08:23:11.025Z,26.22
2023-05-12T08:26:15.384Z,26.87
2023-05-12T08:29:19.658Z,26.09
2023-05-12T08:32:24.108Z,25.83
2023-05-12T08:35:28.372Z,24.98
2023-05-12T08:38:32.788Z,25.16
2023-05-12T08:41:48.746Z,24.55
2023-05-12T08:44:54.276Z,24.38
2023-05-12T08:47:59.631Z,24.78
2023-05-12T08:51:10.374Z,24.22
2023-05-12T08:54:16.942Z,23.91
2023-05-12T08:57:21.786Z,24.05
2023-05-12T09:00:26.614Z,23.89
2023-05-12T09:03:31.385Z,23.29
2023-05-12T09:06:35.832Z,22.79
2023-05-12T09:09:43.604Z,22.84
2023-05-12T09:12:49.839Z,22.85
2023-05-12T09:15:56.629Z,22.61
2023-05-12T09:19:03.561Z,22.67
2023-05-12T09:22:14.734Z,22.76
2023-05-12T09:25:21.683Z,22.68
2023-05-12T09:28:34.802Z,22.72
2023-05-12T09:31:39.608Z,22.64
2023-05-12T09:34:44.242Z,22.88
2023-05-12T09:37:48.291Z,22.62
2023-05-12T09:40:52.419Z,22.37
2023-05-12T09:43:59.209Z,22.47
2023-05-12T09:47:07.652Z,22.46
2023-05-12T09:50:11.788Z,22.54
2023-05-12T09:53:17.760Z,22.51
2023-05-12T09:56:22.874Z,22.37
2023-05-12T09:59:31.358Z,22.04
2023-05-12T10:02:39.853Z,22.05
2023-05-12T10:05:51.620Z,21.83
2023-05-12T10:09:11.605Z,21.90
2023-05-12T10:12:16.770Z,22.15
2023-05-12T10:15:21.446Z,22.13
2023-05-12T10:18:25.962Z,22.26
2023-05-12T10:21:30.626Z,22.10
2023-05-12T10:24:35.083Z,21.81
2023-05-12T10:27:40.311Z,22.05
2023-05-12T10:30:45.913Z,22.11
2023-05-12T10:34:01.200Z,22.34
2023-05-12T10:37:10.817Z,22.31
2023-05-12T10:40:25.547Z,22.39
2023-05-12T10:43:39.224Z,22.38
2023-05-12T10:46:45.557Z,22.39
2023-05-12T10:49:58.718Z,22.37
2023-05-12T10:53:02.772Z,22.35
2023-05-12T10:56:07.976Z,22.32
2023-05-12T10:59:19.027Z,22.38
2023-05-12T11:02:28.975Z,22.47
2023-05-12T11:05:34.876Z,22.64
2023-05-12T11:08:39.872Z,22.63
2023-05-12T11:11:45.609Z,22.48
2023-05-12T11:14:49.768Z,22.56
2023-05-12T11:17:54.248Z,22.54
2023-05-12T11:20:58.418Z,22.09
2023-05-12T11:24:02.817Z,22.14
2023-05-12T11:27:11.810Z,21.91
2023-05-12T11:30:16.296Z,22.17
2023-05-12T11:33:24.381Z,22.24
2023-05-12T11:36:28.617Z,21.94
2023-05-12T11:39:32.966Z,22.13
2023-05-12T11:42:37.616Z,22.43
2023-05-12T11:45:42.264Z,22.61
2023-05-12T11:48:56.561Z,22.60
2023-05-12T11:52:02.359Z,22.34
2023-05-12T11:55:07.673Z,22.24
2023-05-12T11:58:21.728Z,22.08
2023-05-12T12:01:25.793Z,21.88
2023-05-12T12:04:35.129Z,22.29
2023-05-12T12:07:39.568Z,22.51
2023-05-12T12:10:47.676Z,22.48
2023-05-12T12:13:56.691Z,22.52
2023-05-12T12:17:02.293Z,22.44
2023-05-12T12:20:07.839Z,22.30
2023-05-12T12:23:12.037Z,22.31
2023-05-12T12:26:17.275Z,22.20
2023-05-12T12:29:23.818Z,22.00
2023-05-12T12:32:28.058Z,22.08
2023-05-12T12:35:32.164Z,22.24
2023-05-12T12:38:36.666Z,22.23
2023-05-12T12:41:41.249Z,22.42
2023-05-12T12:44:47.805Z,22.61
2023-05-12T12:47:54.594Z,22.83
2023-05-12T12:50:58.466Z,23.00
2023-05-12T12:54:02.575Z,23.08
2023-05-12T12:57:06.538Z,23.12
2023-05-12T13:00:11.883Z,23.10
2023-05-12T13:03:18.091Z,23.12
2023-05-12T13:06:23.605Z,22.97
2023-05-12T13:09:28.013Z,23.07
2023-05-12T13:12:32.552Z,22.96
2023-05-12T13:15:36.679Z,23.09
2023-05-12T13:18:40.756Z,23.20
2023-05-12T13:21:45.386Z,23.18
2023-05-12T13:24:49.413Z,22.98
2023-05-12T13:27:53.767Z,22.92
2023-05-12T13:30:57.984Z,22.93
2023-05-12T13:34:02.402Z,22.94
2023-05-12T13:37:06.730Z,22.96
2023-05-12T13:40:11.384Z,22.92
2023-05-12T13:43:15.331Z,23.08
2023-05-12T13:46:19.771Z,23.12
2023-05-12T13:49:24.185Z,22.84
2023-05-12T13:52:28.305Z,22.74
2023-05-12T13:55:34.266Z,22.72
2023-05-12T13:58:38.440Z,22.56
2023-05-12T14:01:44.148Z,22.39
2023-05-12T14:04:48.221Z,22.10
2023-05-12T14:07:52.600Z,22.09
2023-05-12T14:10:56.831Z,22.39
2023-05-12T14:14:02.678Z,22.61
2023-05-12T14:17:06.556Z,22.95
2023-05-12T14:20:11.613Z,23.14
2023-05-12T14:23:15.709Z,23.16
2023-05-12T14:26:19.816Z,22.86
2023-05-12T14:29:24.118Z,22.74
2023-05-12T14:32:28.155Z,22.59
2023-05-12T14:35:32.546Z,22.27
2023-05-12T14:38:36.943Z,22.10
2023-05-12T14:41:40.959Z,22.11
2023-05-12T14:44:44.969Z,21.99
2023-05-12T14:47:49.173Z,21.88
2023-05-12T14:50:54.948Z,21.87
2023-05-12T14:53:58.839Z,21.85
2023-05-12T14:57:04.039Z,21.92
2023-05-12T15:00:13.732Z,22.10
2023-05-12T15:03:18.618Z,22.28
2023-05-12T15:06:22.941Z,22.49
2023-05-12T15:09:27.111Z,22.73
2023-05-12T15:12:31.754Z,22.89
2023-05-12T15:15:35.980Z,22.77
2023-05-12T15:18:39.812Z,22.95
2023-05-12T15:21:43.895Z,22.82
2023-05-12T15:24:48.195Z,22.70
2023-05-12T15:27:52.232Z,22.60
2023-05-12T15:30:57.275Z,22.59
2023-05-12T15:34:01.460Z,22.46
2023-05-12T15:37:05.656Z,22.36
2023-05-12T15:40:10.280Z,22.23
2023-05-12T15:43:14.560Z,22.09
2023-05-12T15:46:18.728Z,21.97
2023-05-12T15:49:22.708Z,21.76
2023-05-12T15:52:27.795Z,21.77
2023-05-12T15:55:32.242Z,21.90
2023-05-12T15:58:36.360Z,21.90
2023-05-12T16:01:40.731Z,21.90
2023-05-12T16:04:44.782Z,21.95
2023-05-12T16:07:48.806Z,22.10
2023-05-12T16:10:53.169Z,22.13
2023-05-12T16:13:57.346Z,22.15
2023-05-12T16:17:01.664Z,22.27
2023-05-12T16:20:07.797Z,22.15
2023-05-12T16:23:11.503Z,22.25
2023-05-12T16:26:15.813Z,22.14
2023-05-12T16:29:19.996Z,21.97
2023-05-12T16:32:24.272Z,21.79
2023-05-12T16:35:28.561Z,21.71
2023-05-12T16:38:34.694Z,21.55
2023-05-12T16:41:38.827Z,21.41
2023-05-12T16:44:43.540Z,21.43
2023-05-12T16:47:48.209Z,21.27
2023-05-12T16:51:01.383Z,21.27
2023-05-12T16:54:05.507Z,21.24
2023-05-12T16:57:09.738Z,21.17
2023-05-12T17:00:14.621Z,21.24
2023-05-12T17:03:18.677Z,21.26
2023-05-12T17:06:22.726Z,21.33
2023-05-12T17:09:27.244Z,21.41
2023-05-12T17:12:31.442Z,21.47
2023-05-12T17:15:39.489Z,21.55
2023-05-12T17:21:52.022Z,21.44
2023-05-12T17:24:58.561Z,20.86
2023-05-12T17:28:02.520Z,20.40
2023-05-12T17:31:07.184Z,20.01
2023-05-12T17:34:11.237Z,19.78
2023-05-12T17:37:15.774Z,19.73
2023-05-12T17:40:20.090Z,19.68
2023-05-12T17:43:24.265Z,19.64
2023-05-12T17:46:28.450Z,19.58
2023-05-12T17:49:32.713Z,19.65
2023-05-12T17:52:38.208Z,19.60
2023-05-12T17:55:42.254Z,19.63
2023-05-12T17:58:46.638Z,19.61
2023-05-12T18:01:50.895Z,19.65
2023-05-12T18:04:55.131Z,19.70
2023-05-12T18:07:59.120Z,19.80
2023-05-12T18:11:02.863Z,19.75
2023-05-12T18:14:07.157Z,19.68
2023-05-12T18:17:11.547Z,19.64
2023-05-12T18:20:15.969Z,19.63
2023-05-12T18:23:20.375Z,19.60
2023-05-12T18:26:24.633Z,19.56
2023-05-12T18:29:28.625Z,19.58
2023-05-12T18:32:32.888Z,19.63
2023-05-12T18:35:37.392Z,19.57
2023-05-12T18:38:42.388Z,19.49
2023-05-12T18:41:46.388Z,19.52
2023-05-12T18:44:50.475Z,19.48
2023-05-12T18:47:54.777Z,19.41
2023-05-12T18:50:59.795Z,19.33
2023-05-12T18:54:04.340Z,19.21
2023-05-12T18:57:08.779Z,19.12
2023-05-12T19:00:13.474Z,19.10
2023-05-12T19:03:18.295Z,19.19
2023-05-12T19:06:22.730Z,19.16
2023-05-12T19:09:26.864Z,19.19
2023-05-12T19:12:30.957Z,19.12
2023-05-12T19:15:36.154Z,19.11
2023-05-12T19:18:40.328Z,19.17
2023-05-12T19:21:45.468Z,19.16
2023-05-12T19:24:50.615Z,19.09
2023-05-12T19:27:54.748Z,19.04
2023-05-12T19:30:59.077Z,18.95
2023-05-12T19:34:04.198Z,18.88
2023-05-12T19:37:07.989Z,18.84
2023-05-12T19:40:12.521Z,18.69
2023-05-12T19:43:17.062Z,18.71
2023-05-12T19:46:21.000Z,18.62
2023-05-12T19:49:25.193Z,18.55
2023-05-12T19:52:31.247Z,18.52
2023-05-12T19:55:36.134Z,18.48
2023-05-12T19:58:40.098Z,18.37
2023-05-12T20:01:44.581Z,18.32
2023-05-12T20:04:48.848Z,18.26
2023-05-12T20:07:53.110Z,18.20
2023-05-12T20:10:57.674Z,18.22
2023-05-12T20:14:01.735Z,18.21
2023-05-12T20:17:07.463Z,18.14
2023-05-12T20:20:11.703Z,18.11
2023-05-12T20:23:15.734Z,18.07
2023-05-12T20:26:19.963Z,18.05
2023-05-12T20:29:25.918Z,17.96
2023-05-12T20:32:30.079Z,17.87
2023-05-12T20:35:33.974Z,17.82
2023-05-12T20:38:38.031Z,17.81
2023-05-12T20:41:43.447Z,17.79
2023-05-12T20:44:47.662Z,17.76
2023-05-12T20:47:52.070Z,17.74
2023-05-12T20:50:56.605Z,17.71
2023-05-12T20:54:00.972Z,17.75
2023-05-12T20:57:05.702Z,17.70
2023-05-12T21:00:10.836Z,17.57
2023-05-12T21:03:17.068Z,17.46
2023-05-12T21:06:21.245Z,17.37
2023-05-12T21:09:25.308Z,17.34
2023-05-12T21:12:30.089Z,17.34
2023-05-12T21:15:34.492Z,17.27
2023-05-12T21:18:38.874Z,17.22
2023-05-12T21:21:43.177Z,17.13
2023-05-12T21:24:47.389Z,17.13
2023-05-12T21:27:51.788Z,17.13
2023-05-12T21:30:55.994Z,17.24
2023-05-12T21:34:00.673Z,17.24
2023-05-12T21:37:04.755Z,17.24
2023-05-12T21:40:10.041Z,17.19
2023-05-12T21:43:13.893Z,17.13
2023-05-12T21:46:17.918Z,17.12
2023-05-12T21:49:22.168Z,17.13
2023-05-12T21:52:26.181Z,17.18
2023-05-12T21:55:30.248Z,17.12
2023-05-12T21:58:34.396Z,17.12
2023-05-12T22:01:39.085Z,17.09
2023-05-12T22:04:43.226Z,17.02
2023-05-12T22:07:48.194Z,17.03
2023-05-12T22:10:52.456Z,17.02
2023-05-12T22:13:56.517Z,17.02
2023-05-12T22:17:01.279Z,17.01
2023-05-12T22:20:06.344Z,17.03
2023-05-12T22:23:10.383Z,16.96
2023-05-12T22:26:15.727Z,16.95
2023-05-12T22:29:19.405Z,16.86
2023-05-12T22:32:23.885Z,16.70
2023-05-12T22:35:28.228Z,16.57
2023-05-12T22:38:32.202Z,16.51
2023-05-12T22:41:36.420Z,16.44
2023-05-12T22:44:40.829Z,16.36
2023-05-12T22:47:45.217Z,16.42
2023-05-12T22:50:49.536Z,16.36
2023-05-12T22:53:53.847Z,16.28
2023-05-12T22:56:58.091Z,16.17
2023-05-12T23:00:03.729Z,16.07
2023-05-12T23:03:07.736Z,15.98
2023-05-12T23:06:11.906Z,16.04
2023-05-12T23:09:16.282Z,16.04
2023-05-12T23:12:20.324Z,15.95
2023-05-12T23:15:24.620Z,15.86
2023-05-12T23:18:28.734Z,15.78
2023-05-12T23:21:32.940Z,15.69
2023-05-12T23:24:38.196Z,15.68
2023-05-12T23:27:42.337Z,15.69
2023-05-12T23:30:46.504Z,15.72
2023-05-12T23:33:50.962Z,15.65
2023-05-12T23:36:55.032Z,15.55
2023-05-12T23:39:59.206Z,15.45
2023-05-12T23:43:03.270Z,15.41
2023-05-12T23:46:07.787Z,15.37
2023-05-12T23:49:12.138Z,15.31
2023-05-12T23:52:16.570Z,15.20
2023-05-12T23:55:21.698Z,15.10
2023-05-12T23:58:25.942Z,15.02
